Warning: include_once(../snoopy.class.php): failed to open stream: No such file or directory in C:\Apache24\htdocs\met\include.php on line 3

Warning: include_once(): Failed opening '../snoopy.class.php' for inclusion (include_path='.;C:\php\pear') in C:\Apache24\htdocs\met\include.php on line 3

Warning: include_once(../htmlsql.class.php): failed to open stream: No such file or directory in C:\Apache24\htdocs\met\include.php on line 4

Warning: include_once(): Failed opening '../htmlsql.class.php' for inclusion (include_path='.;C:\php\pear') in C:\Apache24\htdocs\met\include.php on line 4
Metar
 

Notice: Undefined variable: root_url in C:\Apache24\htdocs\met\include.php on line 40
Demo 6

Misión y Visión

La misión es proporcionar información fiable a la navegación aérea, contribuyendo a la seguridad, regularidad y eficiencia de la Navegación Aérea Internacional

La visión es contribuir sustancialmente al desarrollo de conocimientos y a la utilización de la meteorología aeronáutica a nivel nacional e internacional, mediante la innovación y la coparticipación con sectores sociales y productivos de la sociedad.

 
  Inicio
  Metar
  Taf
  Wintemp
  SIGMET
  Avisos
  Pronósticos
  Carpeta Meteorologica
  Imágenes Satelitales
  Climatología Aeronáutica
   
  ¿Quienes Somos?
  Contacto
  Eventos



DIRECCIONES PARA INFORMES NACIONALES E INTERNACIONALES
(Metar /Speci - TAF)



http://adds.aviationweather.gov/tafs/index.php

http://www.ogimet.com/metars.phtml



PRONÓSTICOS DE AERÓDROMO

Cuando sea necesario, el encabezamiento abreviado puede incluir un cuarto grupo consistente en tres letras para identificar los boletines demorados (RRA), corregidos(CCA) o enmendados (AAA). Los boletines adicionales demorados, corregidos o enmendados deben identificarse con las letras RRB, RRC, etc.; CCB, CCC,etc.;AAB, AAC,etc.



ESTACIONES DESCRIPCION
MPTO (M) 050300Z 00000KT 9999 FEW018 25/24 Q1011 NOSIG=  
MPBO (M)  
MPCH (M)  
MPSA (M) 042300Z 22010KT 9999 SCT015TCU SCT080 28/25 Q1008 RMK TCU NW-NE-E DSTN PCPN E=  
MPCE (M) 032100Z 00000KT 9999 SCT015 BKN090 28/// Q1009 RWY DAMP=  
MPPN (M) 032100Z 21008KT 9999 SCT015TCU OVC080 28/24 RMK TCU W-N-E=  
MPSM (M) 042100Z E16008KT 9999 FEW030 30/23 Q1007  
MPJE (M)  
MPPA (M) 042300Z 00000KT 9999 FEW017 29/25 Q100=  
MPMG (M) 042300Z 17005KT 130V220 9999 FEW016TCU 29/24 Q1008 NOSIG RMK TCU W/N  
MPDA (M) 041200Z 36003KT(E) 9999 SCT016 SCT120 24/24 Q1010=  
MPVR (M) 032100Z 22018KT(E) 9000 VCSH SCT020TCU BKN100 RMK TCU ALQDS PCPN E=  
MPWN FUERA DE SERVICIO  
MPOA (M)  
MPMF (M)  
MPEJ (M) 032100Z 19012KT 9000 VCSH SCT018TCU 32/26 Q1010 RMK TCU W/NE PCPN NE=  


 

CLIMATICAS

MPTO

4 JUNIO 2020

 

PCPN (mm)

T° MAX

T° MIN

VIENTO MAX (KT)

HORA

VIENTO PREDOM (KT)

00.8

29.7

24.7

17010KT

0000Z

SE 05KT

 

 

CLIMATICAS

MPMG

04- JUNIO - 2020

PCPN (mm)

T° MAX

T° MIN

VIENTO MAX (KT)

HORA

VIENTO PREDOM (KT)

0.0

29.7

25.8

16009KT

1800Z

S

 

 
 

Fatal error: Uncaught Error: Class 'htmlsql' not found in C:\Apache24\htdocs\met\meteorologia-metar.php:391 Stack trace: #0 {main} thrown in C:\Apache24\htdocs\met\meteorologia-metar.php on line 391